Time;durP1;ratioP1;P1;durP2;ratioP2;P2;SDS_P1;SDS_P2;PMS_P1;PMS_P2;Temp;Humidity;BMP_temperature;BMP_pressure;BME280_temperature;BME280_humidity;BME280_pressure;Samples;Min_cycle;Max_cycle;Signal;HPM_P1;HPM_P2
2022/01/15 00:00:17;;;;;;;45.83;19.67;;;;;;;7.36;62.65;102701.84;676667;29;1300;-85
2022/01/15 00:00:39;;;;;;;46.15;19.77;;;;;;;7.36;61.94;102699.25;677941;29;1502;-84
2022/01/15 00:01:00;;;;;;;47.08;20.10;;;;;;;7.45;62.45;102716.28;674829;29;1324;-85
2022/01/15 00:01:20;;;;;;;50.22;20.23;;;;;;;7.36;62.24;102696.66;678962;29;1542;-84
2022/01/15 00:01:41;;;;;;;48.97;20.45;;;;;;;7.37;62.27;102698.47;679143;29;1156;-84
2022/01/15 00:02:02;;;;;;;50.38;21.10;;;;;;;7.36;61.88;102696.66;679324;29;1184;-85
2022/01/15 00:02:23;;;;;;;46.27;21.20;;;;;;;7.37;62.38;102702.75;681816;29;1350;-85
2022/01/15 00:02:43;;;;;;;47.47;20.83;;;;;;;7.34;62.40;102693.06;676549;29;1239;-84
2022/01/15 00:03:06;;;;;;;49.20;20.63;;;;;;;7.38;62.15;102704.56;673809;29;1466;-84
2022/01/15 00:03:27;;;;;;;55.22;20.85;;;;;;;7.34;62.59;102695.66;676509;29;1151;-84
2022/01/15 00:03:48;;;;;;;50.33;20.48;;;;;;;7.43;62.44;102717.88;679085;29;1375;-85
2022/01/15 00:04:08;;;;;;;43.30;19.70;;;;;;;7.39;62.64;102699.47;678971;29;1213;-84
2022/01/15 00:04:29;;;;;;;41.60;20.23;;;;;;;7.46;61.97;102700.81;673177;29;1293;-85
2022/01/15 00:04:50;;;;;;;43.70;21.10;;;;;;;7.47;62.36;102707.81;678731;29;1359;-85
2022/01/15 00:05:11;;;;;;;48.03;22.35;;;;;;;7.47;62.32;102701.72;683721;28;1194;-84
2022/01/15 00:05:32;;;;;;;46.50;21.55;;;;;;;7.46;61.89;102699.91;680146;29;1727;-85
2022/01/15 00:05:54;;;;;;;47.83;20.73;;;;;;;7.50;62.07;102709.75;681749;29;1221;-85
2022/01/15 00:06:15;;;;;;;49.17;20.58;;;;;;;7.47;61.87;102705.22;673303;29;1384;-85
2022/01/15 00:06:36;;;;;;;53.43;21.37;;;;;;;7.57;61.85;102722.38;679213;29;1401;-85
2022/01/15 00:06:56;;;;;;;52.43;21.63;;;;;;;7.52;62.09;102708.16;687080;28;1207;-84
2022/01/15 00:07:17;;;;;;;48.05;21.25;;;;;;;7.60;61.75;102721.69;678729;29;1573;-84
2022/01/15 00:07:38;;;;;;;46.13;20.60;;;;;;;7.51;62.21;102708.94;684021;28;1401;-84
2022/01/15 00:08:03;;;;;;;48.97;21.00;;;;;;;7.49;61.83;102693.25;680714;29;1673;-85
2022/01/15 00:08:24;;;;;;;48.65;20.30;;;;;;;7.54;61.63;102702.28;681008;29;1374;-85
2022/01/15 00:08:44;;;;;;;48.67;20.45;;;;;;;7.58;61.63;102707.69;684686;28;1341;-85
2022/01/15 00:09:05;;;;;;;45.53;19.63;;;;;;;7.63;61.68;102712.41;681695;29;1382;-85
2022/01/15 00:09:26;;;;;;;45.22;19.58;;;;;;;7.66;61.50;102717.84;684170;28;1851;-85
2022/01/15 00:09:50;;;;;;;43.50;19.52;;;;;;;7.63;61.40;102711.53;678721;29;1480;-84
2022/01/15 00:10:10;;;;;;;43.03;19.17;;;;;;;7.63;61.65;102707.22;676164;29;1186;-85
2022/01/15 00:10:31;;;;;;;41.13;18.48;;;;;;;7.56;61.68;102694.59;679168;29;1291;-85
2022/01/15 00:10:52;;;;;;;42.97;18.63;;;;;;;7.61;61.33;102698.41;679342;29;1044;-85
2022/01/15 00:11:12;;;;;;;41.60;19.10;;;;;;;7.68;61.48;102705.84;677103;29;1303;-85
2022/01/15 00:11:34;;;;;;;43.10;19.38;;;;;;;7.58;61.24;102692.09;681770;29;1305;-85
2022/01/15 00:11:55;;;;;;;43.50;19.50;;;;;;;7.56;61.58;102694.59;676776;29;1204;-84
2022/01/15 00:12:16;;;;;;;44.65;20.15;;;;;;;7.53;61.56;102695.28;679219;29;1275;-85
2022/01/15 00:12:40;;;;;;;44.57;19.80;;;;;;;7.56;61.75;102689.41;679070;29;1407;-84
2022/01/15 00:13:02;;;;;;;41.80;18.65;;;;;;;7.53;61.50;102682.28;680737;29;1218;-84
2022/01/15 00:13:29;;;;;;;38.60;17.77;;;;;;;7.64;61.15;102698.66;681910;28;1404;-85
2022/01/15 00:13:58;;;;;;;38.40;17.80;;;;;;;7.54;61.35;102683.16;681338;29;1188;-85
2022/01/15 00:14:27;;;;;;;43.30;19.17;;;;;;;7.56;61.20;102689.41;686101;28;1091;-85
2022/01/15 00:14:47;;;;;;;43.10;18.83;;;;;;;7.48;61.26;102683.63;679507;28;1914;-84
2022/01/15 00:15:17;;;;;;;43.80;18.85;;;;;;;7.49;61.73;102677.66;681977;28;1276;-85
2022/01/15 00:15:46;;;;;;;45.15;19.77;;;;;;;7.49;61.56;102679.38;684688;28;1475;-84
2022/01/15 00:16:10;;;;;;;42.83;19.52;;;;;;;7.47;61.94;102673.13;682069;28;1436;-84
2022/01/15 00:16:45;;;;;;;41.67;18.52;;;;;;;7.46;61.70;102676.53;678741;29;1299;-86
2022/01/15 00:17:18;;;;;;;42.05;17.95;;;;;;;7.46;61.78;102680.03;679589;29;1243;-84
2022/01/15 00:17:57;;;;;;;42.35;18.80;;;;;;;7.57;61.53;102690.28;682084;28;1239;-83
2022/01/15 00:18:28;;;;;;;40.63;19.20;;;;;;;7.57;61.36;102688.59;679149;29;1111;-84
2022/01/15 00:19:04;;;;;;;41.80;19.33;;;;;;;7.54;61.45;102686.69;681810;29;1316;-84
2022/01/15 00:19:41;;;;;;;43.72;18.95;;;;;;;7.49;61.51;102677.66;679140;29;1204;-84
2022/01/15 00:20:05;;;;;;;45.50;18.80;;;;;;;7.48;61.63;102690.53;679597;29;1186;-84
2022/01/15 00:20:28;;;;;;;44.92;18.88;;;;;;;7.53;61.48;102695.28;682625;28;1372;-84
2022/01/15 00:20:49;;;;;;;44.42;18.83;;;;;;;7.50;61.63;102684.66;678710;29;1351;-84
2022/01/15 00:21:11;;;;;;;46.28;18.92;;;;;;;7.58;61.33;102694.69;677805;29;1123;-84
2022/01/15 00:21:31;;;;;;;45.47;18.63;;;;;;;7.52;61.71;102692.56;674482;29;1257;-85
2022/01/15 00:21:52;;;;;;;45.93;18.87;;;;;;;7.53;61.33;102694.34;674265;29;1205;-85
2022/01/15 00:22:18;;;;;;;46.35;18.90;;;;;;;7.58;61.44;102703.41;676579;29;1192;-84
2022/01/15 00:22:39;;;;;;;45.17;18.83;;;;;;;7.48;61.27;102680.13;677222;29;1244;-84
2022/01/15 00:22:59;;;;;;;43.60;18.30;;;;;;;7.55;61.78;102697.97;684976;28;1329;-84
2022/01/15 00:23:20;;;;;;;42.95;18.88;;;;;;;7.50;61.32;102688.97;682212;28;1358;-84
2022/01/15 00:23:43;;;;;;;42.60;18.93;;;;;;;7.53;61.32;102695.28;680656;29;1196;-84
2022/01/15 00:24:04;;;;;;;42.30;19.05;;;;;;;7.44;61.51;102686.84;688636;28;1228;-84
2022/01/15 00:24:24;;;;;;;41.83;18.40;;;;;;;7.54;61.56;102698.75;685192;28;1421;-84
2022/01/15 00:24:46;;;;;;;42.00;18.20;;;;;;;7.49;61.74;102694.94;687733;28;1229;-84
2022/01/15 00:25:07;;;;;;;43.78;18.38;;;;;;;7.41;61.42;102681.41;684485;28;1335;-84
2022/01/15 00:25:30;;;;;;;45.75;18.90;;;;;;;7.47;61.64;102691.31;686693;28;1338;-84
2022/01/15 00:25:51;;;;;;;43.92;19.15;;;;;;;7.41;61.50;102678.78;684451;28;1301;-84
2022/01/15 00:26:11;;;;;;;41.63;18.98;;;;;;;7.36;61.37;102660.28;679249;29;1241;-84
2022/01/15 00:26:33;;;;;;;40.38;18.58;;;;;;;7.37;61.32;102661.19;676801;29;1289;-84
2022/01/15 00:26:57;;;;;;;42.63;18.85;;;;;;;7.47;61.88;102683.53;677007;29;1518;-84
2022/01/15 00:27:17;;;;;;;44.25;19.35;;;;;;;7.43;61.77;102676.31;679360;29;1455;-84
2022/01/15 00:27:39;;;;;;;41.83;18.73;;;;;;;7.44;61.75;102673.84;675888;29;1196;-84
2022/01/15 00:28:00;;;;;;;40.63;18.85;;;;;;;7.43;61.59;102671.13;676713;29;2408;-84
2022/01/15 00:28:21;;;;;;;43.00;19.33;;;;;;;7.45;61.63;102677.31;670901;29;1273;-84
2022/01/15 00:28:42;;;;;;;43.50;20.38;;;;;;;7.47;61.62;102675.72;676592;29;1253;-84
2022/01/15 00:29:03;;;;;;;42.10;19.90;;;;;;;7.42;61.40;102666.72;678683;29;1184;-85
2022/01/15 00:29:23;;;;;;;38.92;18.80;;;;;;;7.40;61.70;102667.53;681239;29;1371;-84
2022/01/15 00:29:44;;;;;;;39.92;18.13;;;;;;;7.47;61.55;102686.13;676422;29;1339;-84
2022/01/15 00:30:05;;;;;;;42.65;17.90;;;;;;;7.44;61.51;102680.72;681796;29;1321;-83
2022/01/15 00:30:26;;;;;;;42.25;17.70;;;;;;;7.43;61.60;102686.72;682381;28;1311;-84
2022/01/15 00:30:47;;;;;;;41.03;17.48;;;;;;;7.40;61.89;102672.72;683895;28;1310;-84
2022/01/15 00:31:07;;;;;;;40.50;18.10;;;;;;;7.47;61.97;102686.13;680225;28;1334;-83
2022/01/15 00:31:28;;;;;;;40.88;17.85;;;;;;;7.41;61.88;102676.19;682356;29;1300;-83
2022/01/15 00:31:49;;;;;;;41.40;18.17;;;;;;;7.35;61.98;102666.28;682310;28;1302;-84
2022/01/15 00:32:09;;;;;;;40.63;18.05;;;;;;;7.39;62.02;102678.69;682112;29;1290;-84
2022/01/15 00:32:30;;;;;;;40.40;18.77;;;;;;;7.39;61.53;102681.28;677477;29;1415;-84
2022/01/15 00:32:52;;;;;;;41.53;18.37;;;;;;;7.42;62.23;102684.91;676333;29;1446;-84
2022/01/15 00:33:12;;;;;;;43.38;18.98;;;;;;;7.36;61.53;102670.69;679406;29;1421;-83
2022/01/15 00:33:33;;;;;;;43.97;19.00;;;;;;;7.40;61.84;102670.13;679226;29;1420;-83
2022/01/15 00:33:54;;;;;;;40.40;18.75;;;;;;;7.40;61.68;102677.91;682218;29;1283;-84
2022/01/15 00:34:14;;;;;;;38.08;17.95;;;;;;;7.39;61.85;102660.50;686265;28;1270;-84
2022/01/15 00:34:35;;;;;;;37.00;17.70;;;;;;;7.46;61.94;102667.06;687363;28;1377;-84
2022/01/15 00:34:57;;;;;;;39.67;18.42;;;;;;;7.52;61.73;102682.16;678650;29;1918;-83
2022/01/15 00:35:19;;;;;;;40.65;18.38;;;;;;;7.39;61.52;102668.28;681939;29;1278;-84
2022/01/15 00:35:39;;;;;;;42.33;17.98;;;;;;;7.40;61.78;102669.22;682402;29;1453;-84
2022/01/15 00:36:00;;;;;;;40.40;17.80;;;;;;;7.38;61.50;102668.19;687487;28;1325;-84
2022/01/15 00:36:20;;;;;;;40.40;18.47;;;;;;;7.41;61.58;102673.59;678532;29;1202;-83
2022/01/15 00:36:41;;;;;;;40.42;18.48;;;;;;;7.36;61.84;102673.28;681000;28;1395;-83
2022/01/15 00:37:02;;;;;;;42.40;18.65;;;;;;;7.38;61.86;102671.69;678807;29;1378;-84
2022/01/15 00:37:23;;;;;;;43.57;18.50;;;;;;;7.37;61.43;102672.47;680620;29;1116;-83
2022/01/15 00:37:43;;;;;;;42.50;18.33;;;;;;;7.37;61.60;102671.59;682194;29;1191;-84
2022/01/15 00:38:04;;;;;;;42.03;17.80;;;;;;;7.30;61.78;102653.75;683719;28;1389;-83
2022/01/15 00:38:25;;;;;;;43.63;18.05;;;;;;;7.38;61.69;102668.19;681003;28;1191;-84
2022/01/15 00:38:45;;;;;;;42.40;17.90;;;;;;;7.33;61.96;102665.28;681404;28;1473;-84
2022/01/15 00:39:06;;;;;;;43.43;18.37;;;;;;;7.38;62.10;102673.41;687062;28;1340;-84
2022/01/15 00:39:27;;;;;;;42.03;18.15;;;;;;;7.38;61.86;102666.47;676637;28;1633;-83
2022/01/15 00:39:48;;;;;;;45.50;18.72;;;;;;;7.32;61.84;102652.16;682327;28;1195;-83
2022/01/15 00:40:14;;;;;;;44.13;18.27;;;;;;;7.31;62.37;102656.44;679641;29;1591;-84
2022/01/15 00:40:34;;;;;;;45.88;18.80;;;;;;;7.31;62.02;102651.25;676081;29;1264;-83
2022/01/15 00:40:55;;;;;;;46.03;19.65;;;;;;;7.34;61.78;102663.56;675473;29;1371;-84
2022/01/15 00:41:17;;;;;;;44.90;18.53;;;;;;;7.38;61.86;102674.28;682045;29;1140;-83
2022/01/15 00:41:38;;;;;;;42.58;18.33;;;;;;;7.35;61.82;102661.09;676777;29;1399;-83
2022/01/15 00:41:59;;;;;;;42.95;18.15;;;;;;;7.42;62.20;102675.41;682350;29;1310;-83
2022/01/15 00:42:19;;;;;;;41.73;18.10;;;;;;;7.36;61.72;102670.69;677008;29;1366;-83
2022/01/15 00:42:40;;;;;;;41.83;18.13;;;;;;;7.43;61.98;102678.91;680225;29;1284;-84
2022/01/15 00:43:02;;;;;;;41.47;17.92;;;;;;;7.36;62.11;102659.38;683829;28;1283;-83
2022/01/15 00:43:22;;;;;;;41.95;18.23;;;;;;;7.37;62.16;102661.19;679525;29;1377;-84
2022/01/15 00:43:43;;;;;;;41.17;18.10;;;;;;;7.38;62.11;102666.47;682441;28;1505;-84
2022/01/15 00:44:04;;;;;;;43.47;18.98;;;;;;;7.40;61.52;102664.94;684775;28;1108;-83
2022/01/15 00:44:39;;;;;;;43.25;19.42;;;;;;;7.47;62.26;102678.31;684760;28;1139;-83
2022/01/15 00:45:01;;;;;;;40.45;19.27;;;;;;;7.49;62.14;102674.16;685337;28;2097;-83
2022/01/15 00:45:22;;;;;;;43.15;19.50;;;;;;;7.52;61.86;102677.88;684432;28;1497;-84
2022/01/15 00:45:43;;;;;;;43.05;19.00;;;;;;;7.45;61.79;102665.25;681075;29;1275;-84
2022/01/15 00:46:04;;;;;;;41.90;18.97;;;;;;;7.52;61.92;102674.38;681960;29;1140;-83
2022/01/15 00:46:25;;;;;;;40.65;18.40;;;;;;;7.44;62.19;102662.53;683552;28;1297;-83
2022/01/15 00:46:46;;;;;;;39.88;18.25;;;;;;;7.48;62.28;102668.06;680141;29;1263;-83
2022/01/15 00:47:06;;;;;;;38.17;17.85;;;;;;;7.50;61.72;102674.25;676750;29;1335;-84
2022/01/15 00:47:31;;;;;;;39.77;17.83;;;;;;;7.46;61.90;102666.13;679720;29;1359;-83
2022/01/15 00:47:52;;;;;;;40.85;18.40;;;;;;;7.38;62.11;102657.81;682319;29;1267;-83
2022/01/15 00:48:14;;;;;;;43.97;18.77;;;;;;;7.44;61.76;102670.31;684625;28;1516;-84
2022/01/15 00:48:35;;;;;;;43.22;19.08;;;;;;;7.40;61.97;102670.13;677192;29;777;-83
2022/01/15 00:48:55;;;;;;;43.90;19.23;;;;;;;7.36;61.84;102665.47;683678;28;1386;-84
2022/01/15 00:49:19;;;;;;;43.92;19.13;;;;;;;7.29;62.16;102660.63;683752;28;1081;-83
2022/01/15 00:49:39;;;;;;;45.80;19.08;;;;;;;7.33;62.22;102660.06;681632;28;1249;-84
2022/01/15 00:50:01;;;;;;;44.63;18.92;;;;;;;7.39;62.28;102675.19;676912;29;1379;-83
2022/01/15 00:50:22;;;;;;;45.58;19.23;;;;;;;7.39;62.46;102659.59;682293;29;1243;-84
2022/01/15 00:50:42;;;;;;;46.40;19.67;;;;;;;7.39;62.25;102665.69;682073;29;1175;-84
2022/01/15 00:51:03;;;;;;;46.22;20.02;;;;;;;7.38;62.36;102657.81;684835;28;1109;-83
2022/01/15 00:51:24;;;;;;;47.92;20.75;;;;;;;7.39;62.00;102665.69;684719;28;1422;-84
2022/01/15 00:51:45;;;;;;;46.97;20.35;;;;;;;7.38;62.27;102661.28;677063;29;1229;-83
2022/01/15 00:52:06;;;;;;;50.77;20.47;;;;;;;7.36;62.25;102651.56;680031;28;1260;-83
2022/01/15 00:52:27;;;;;;;51.60;20.48;;;;;;;7.40;62.12;102659.72;680247;29;1454;-84
2022/01/15 00:52:48;;;;;;;54.80;20.63;;;;;;;7.42;62.35;102662.41;681421;29;1271;-84
2022/01/15 00:53:08;;;;;;;56.60;20.90;;;;;;;7.46;61.77;102667.06;684340;28;1287;-84
2022/01/15 00:53:29;;;;;;;55.33;20.75;;;;;;;7.38;61.97;102645.69;676641;29;1458;-84
2022/01/15 00:53:49;;;;;;;54.90;21.17;;;;;;;7.40;61.85;102654.53;679878;29;1164;-83
2022/01/15 00:54:10;;;;;;;52.08;21.00;;;;;;;7.47;62.19;102665.34;679266;29;1699;-84
2022/01/15 00:54:30;;;;;;;52.22;21.20;;;;;;;7.46;61.79;102664.44;679585;29;1256;-84
2022/01/15 00:54:52;;;;;;;49.70;21.27;;;;;;;7.47;61.74;102662.75;679626;29;1980;-84
2022/01/15 00:55:14;;;;;;;50.05;21.33;;;;;;;7.40;62.00;102645.81;678258;29;1042;-84
2022/01/15 00:55:34;;;;;;;49.63;21.35;;;;;;;7.43;61.67;102646.03;673488;29;1539;-83
2022/01/15 00:55:55;;;;;;;49.58;21.35;;;;;;;7.43;61.88;102651.22;672975;29;1265;-84
2022/01/15 00:56:15;;;;;;;47.80;20.90;;;;;;;7.46;61.76;102650.53;682003;28;1207;-84
2022/01/15 00:56:36;;;;;;;46.87;19.93;;;;;;;7.43;61.95;102647.75;679365;29;1184;-83
2022/01/15 00:56:56;;;;;;;45.83;19.60;;;;;;;7.45;61.91;102638.34;676825;29;1264;-84
2022/01/15 00:57:17;;;;;;;46.45;19.65;;;;;;;7.44;61.63;102640.06;679927;29;1366;-84
2022/01/15 00:57:41;;;;;;;48.23;20.03;;;;;;;7.53;61.79;102656.31;676919;29;1311;-84
2022/01/15 00:58:01;;;;;;;50.25;20.38;;;;;;;7.46;61.63;102655.75;682029;28;1444;-84
2022/01/15 00:58:22;;;;;;;49.47;21.20;;;;;;;7.44;61.64;102649.53;680461;29;1203;-84
2022/01/15 00:58:43;;;;;;;45.10;20.80;;;;;;;7.39;61.34;102633.63;685133;28;735;-84
2022/01/15 00:59:03;;;;;;;41.30;20.10;;;;;;;7.42;61.74;102644.22;677974;29;1219;-84
2022/01/15 00:59:24;;;;;;;43.08;19.90;;;;;;;7.41;62.31;102650.22;684677;28;1311;-83
2022/01/15 00:59:44;;;;;;;46.42;20.52;;;;;;;7.47;61.69;102655.88;679131;29;1208;-84
2022/01/15 01:00:08;;;;;;;48.87;21.23;;;;;;;7.43;62.11;102650.34;679552;29;1354;-83
2022/01/15 01:00:28;;;;;;;53.97;21.75;;;;;;;7.43;61.85;102650.34;674206;29;1542;-83
2022/01/15 01:00:49;;;;;;;52.60;20.83;;;;;;;7.43;61.46;102647.75;676740;29;1483;-84
2022/01/15 01:01:10;;;;;;;53.90;21.20;;;;;;;7.43;61.69;102645.16;684926;28;1084;-84
2022/01/15 01:01:30;;;;;;;55.28;20.90;;;;;;;7.49;62.03;102661.19;682392;29;1480;-84
2022/01/15 01:01:51;;;;;;;53.92;21.17;;;;;;;7.43;61.43;102645.16;679570;29;1358;-84
2022/01/15 01:02:20;;;;;;;51.37;20.40;;;;;;;7.49;61.88;102666.38;674174;29;1271;-84
2022/01/15 01:02:41;;;;;;;49.85;19.23;;;;;;;7.47;61.78;102661.06;679578;29;1160;-84
2022/01/15 01:03:01;;;;;;;52.05;20.08;;;;;;;7.50;61.66;102657.78;676607;29;1403;-84
2022/01/15 01:03:22;;;;;;;48.85;19.95;;;;;;;7.45;61.93;102654.84;676978;29;1177;-84
2022/01/15 01:03:42;;;;;;;49.03;20.02;;;;;;;7.45;62.01;102652.25;677223;29;816;-84
2022/01/15 01:04:03;;;;;;;50.07;19.70;;;;;;;7.51;61.69;102659.59;672448;29;1146;-84
2022/01/15 01:04:24;;;;;;;50.67;19.95;;;;;;;7.44;61.53;102644.34;675918;29;1343;-84
2022/01/15 01:04:44;;;;;;;52.20;20.45;;;;;;;7.47;61.62;102653.25;676358;29;1422;-84
2022/01/15 01:05:05;;;;;;;49.30;20.30;;;;;;;7.50;61.85;102655.19;682114;29;1643;-84
2022/01/15 01:05:26;;;;;;;47.53;20.35;;;;;;;7.53;62.17;102658.00;676699;29;1382;-84
2022/01/15 01:05:47;;;;;;;46.13;19.80;;;;;;;7.52;62.01;102656.19;674360;29;1455;-84
2022/01/15 01:06:07;;;;;;;46.65;19.65;;;;;;;7.46;62.01;102647.94;679156;29;1324;-83
2022/01/15 01:06:28;;;;;;;45.00;19.40;;;;;;;7.46;61.73;102637.56;684785;28;1325;-83
2022/01/15 01:06:48;;;;;;;44.33;19.60;;;;;;;7.44;62.10;102642.66;679593;29;1271;-84
2022/01/15 01:07:09;;;;;;;45.13;19.33;;;;;;;7.52;62.32;102648.38;678030;28;1637;-83
2022/01/15 01:07:30;;;;;;;45.75;19.48;;;;;;;7.47;62.09;102647.16;678991;29;1183;-84
2022/01/15 01:07:50;;;;;;;43.55;19.27;;;;;;;7.47;62.15;102647.16;682337;29;1179;-84
2022/01/15 01:08:11;;;;;;;42.27;19.33;;;;;;;7.44;62.21;102637.47;679235;29;1204;-84
2022/01/15 01:08:32;;;;;;;43.78;19.38;;;;;;;7.43;62.06;102632.16;682103;29;1282;-84
2022/01/15 01:08:52;;;;;;;43.80;19.60;;;;;;;7.49;62.07;102651.66;684935;28;1310;-84
2022/01/15 01:09:13;;;;;;;44.93;19.17;;;;;;;7.49;62.12;102645.59;684584;28;1154;-84
2022/01/15 01:10:58;;;;;;;48.35;19.40;;;;;;;7.53;61.51;102642.41;680572;28;1233;-84
2022/01/15 01:11:29;;;;;;;47.72;19.35;;;;;;;7.54;61.76;102633.81;681764;29;1223;-84
2022/01/15 01:11:58;;;;;;;41.85;19.45;;;;;;;7.51;61.96;102628.41;685330;28;1979;-84
2022/01/15 01:20:08;;;;;;;41.40;19.65;;;;;;;7.57;61.85;102625.31;680303;28;1252;-83
2022/01/15 01:22:53;;;;;;;41.80;18.52;;;;;;;7.74;61.54;102634.31;682974;29;844;-84
2022/01/15 01:22:59;;;;;;;44.50;18.10;;;;;;;7.74;61.40;102627.41;685379;28;1670;-84
2022/01/15 01:23:20;;;;;;;43.77;18.23;;;;;;;7.67;61.50;102613.09;679757;29;1292;-84
2022/01/15 01:23:41;;;;;;;41.13;18.10;;;;;;;7.69;61.67;102613.22;677475;29;1239;-84
2022/01/15 01:24:01;;;;;;;39.40;17.73;;;;;;;7.68;61.38;102609.69;674713;29;1387;-84
2022/01/15 01:24:23;;;;;;;43.67;18.35;;;;;;;7.78;61.79;102629.44;679352;29;1391;-84
2022/01/15 01:24:45;;;;;;;45.03;18.98;;;;;;;7.74;60.83;102616.13;677638;29;1335;-83
2022/01/15 01:25:06;;;;;;;45.67;19.45;;;;;;;7.72;61.36;102618.59;676155;29;1388;-84
2022/01/15 01:25:39;;;;;;;42.60;19.70;;;;;;;7.68;61.18;102620.09;680136;29;1076;-84
2022/01/15 01:26:08;;;;;;;44.70;20.02;;;;;;;7.63;61.58;102613.66;683261;28;1255;-84
2022/01/15 01:26:38;;;;;;;46.25;19.05;;;;;;;7.60;61.23;102618.66;682109;28;1466;-84
2022/01/15 01:27:03;;;;;;;46.45;18.77;;;;;;;7.61;61.72;102614.38;679645;29;1375;-83
2022/01/15 01:27:29;;;;;;;45.03;19.55;;;;;;;7.59;61.70;102611.66;674439;29;1524;-84
2022/01/15 01:27:53;;;;;;;42.60;18.60;;;;;;;7.62;61.59;102626.56;677146;29;1253;-84
2022/01/15 01:28:23;;;;;;;42.25;17.80;;;;;;;7.64;61.72;102625.88;679833;29;1363;-83
2022/01/15 01:28:46;;;;;;;42.88;18.33;;;;;;;7.59;61.34;102613.34;679912;29;1243;-83
2022/01/15 01:29:24;;;;;;;42.10;18.90;;;;;;;7.64;61.89;102620.69;679114;29;1350;-84
2022/01/15 01:30:15;;;;;;;38.20;18.10;;;;;;;7.72;61.62;102623.81;684271;28;1655;-84
2022/01/15 01:31:21;;;;;;;42.38;20.10;;;;;;;7.67;61.41;102617.38;679867;29;1172;-84
2022/01/15 01:32:01;;;;;;;42.58;19.95;;;;;;;7.74;61.36;102626.53;677567;29;1244;-84
2022/01/15 01:33:45;;;;;;;41.63;19.42;;;;;;;7.82;61.50;102635.75;684728;28;1420;-84
2022/01/15 01:34:10;;;;;;;42.35;19.15;;;;;;;7.84;61.03;102639.34;683921;28;1517;-84
2022/01/15 01:34:34;;;;;;;40.22;18.20;;;;;;;7.77;60.90;102626.72;682217;29;1401;-84
2022/01/15 01:34:54;;;;;;;39.05;18.75;;;;;;;7.79;60.65;102632.91;681125;29;1906;-83
2022/01/15 01:35:30;;;;;;;39.37;18.83;;;;;;;7.77;61.08;102635.44;684043;28;1269;-84
2022/01/15 01:36:56;;;;;;;43.83;19.23;;;;;;;7.69;61.26;102626.19;677037;29;1662;-84
2022/01/15 01:37:02;;;;;;;41.08;18.70;;;;;;;7.85;61.28;102641.16;680943;29;1381;-84
2022/01/15 01:37:31;;;;;;;36.20;17.60;;;;;;;7.67;61.61;102633.88;679575;29;1414;-84
2022/01/15 01:37:54;;;;;;;41.50;18.08;;;;;;;7.63;61.99;102634.44;684733;28;1429;-84
2022/01/15 01:38:25;;;;;;;41.03;18.52;;;;;;;7.59;61.74;102626.31;685198;28;1258;-83
2022/01/15 01:39:16;;;;;;;38.30;18.52;;;;;;;7.62;61.76;102622.25;679453;29;1096;-84
2022/01/15 01:39:46;;;;;;;41.30;19.05;;;;;;;7.66;61.71;102634.69;674599;29;1296;-84
2022/01/15 01:40:40;;;;;;;38.05;18.23;;;;;;;7.60;61.52;102615.13;677920;29;1243;-83
2022/01/15 01:41:01;;;;;;;39.83;18.73;;;;;;;7.73;61.74;102633.41;680974;28;1886;-84
2022/01/15 01:41:24;;;;;;;40.70;19.52;;;;;;;7.66;61.65;102613.88;677241;29;1275;-84
2022/01/15 01:42:54;;;;;;;40.97;19.48;;;;;;;7.71;61.83;102629.81;682668;28;1295;-83
2022/01/15 01:44:02;;;;;;;37.63;18.53;;;;;;;7.67;61.76;102623.47;677477;29;1011;-84
2022/01/15 01:44:25;;;;;;;41.55;19.33;;;;;;;7.69;62.12;102618.41;679729;29;1430;-84
2022/01/15 01:45:14;;;;;;;42.42;19.15;;;;;;;7.77;61.15;102625.03;685732;28;1217;-84
2022/01/15 01:45:34;;;;;;;43.53;18.92;;;;;;;7.79;61.57;102625.13;684981;28;1294;-83
2022/01/15 01:46:21;;;;;;;44.08;18.17;;;;;;;7.78;61.46;102619.03;676119;29;1276;-84
2022/01/15 01:46:43;;;;;;;44.05;18.13;;;;;;;7.91;61.48;102633.78;678197;29;1262;-84
2022/01/15 01:47:10;;;;;;;44.90;19.45;;;;;;;7.91;61.39;102627.66;682167;29;1386;-83
2022/01/15 01:47:39;;;;;;;46.67;20.05;;;;;;;7.86;61.05;102616.06;682652;29;1443;-84
2022/01/15 01:48:00;;;;;;;41.95;19.00;;;;;;;7.87;61.39;102617.88;680934;29;1101;-84
2022/01/15 01:48:21;;;;;;;40.72;18.73;;;;;;;7.81;61.59;102608.84;687625;28;1183;-84
2022/01/15 01:48:42;;;;;;;41.78;19.25;;;;;;;7.87;61.45;102618.75;681736;29;1179;-84
2022/01/15 01:49:03;;;;;;;43.40;19.30;;;;;;;7.92;61.09;102622.56;682079;28;1306;-84
2022/01/15 01:49:24;;;;;;;41.08;18.90;;;;;;;7.92;60.99;102626.91;684163;28;1431;-83
2022/01/15 01:49:44;;;;;;;39.67;18.52;;;;;;;7.84;61.19;102610.75;682253;29;820;-84
2022/01/15 01:50:09;;;;;;;42.40;19.08;;;;;;;7.93;61.51;102615.69;682388;29;1278;-84
2022/01/15 01:50:30;;;;;;;45.60;19.13;;;;;;;7.89;61.13;102611.97;676742;29;1467;-84
2022/01/15 01:50:51;;;;;;;49.22;19.95;;;;;;;7.84;61.32;102602.94;677014;29;1413;-84
2022/01/15 01:51:34;;;;;;;45.03;19.60;;;;;;;7.83;60.86;102598.56;679407;29;1208;-84
2022/01/15 01:51:55;;;;;;;36.70;18.40;;;;;;;7.87;61.60;102602.28;684653;28;1168;-84
2022/01/15 01:52:16;;;;;;;39.97;18.13;;;;;;;7.90;60.90;102612.88;680860;28;1371;-84
2022/01/15 01:52:37;;;;;;;40.42;18.10;;;;;;;7.86;61.52;102598.75;677145;29;1429;-84
2022/01/15 01:52:58;;;;;;;41.08;18.20;;;;;;;7.84;61.05;102607.28;683570;28;1318;-84
2022/01/15 01:53:19;;;;;;;40.17;19.33;;;;;;;7.80;61.15;102601.84;684371;28;1481;-83
2022/01/15 01:53:39;;;;;;;42.80;18.80;;;;;;;7.80;61.41;102600.97;682292;28;1171;-84
2022/01/15 01:54:04;;;;;;;44.83;19.15;;;;;;;7.76;61.38;102598.94;673235;29;1258;-84
2022/01/15 01:54:25;;;;;;;44.60;19.25;;;;;;;7.80;61.37;102606.16;684003;28;1593;-84
2022/01/15 01:54:45;;;;;;;42.63;19.30;;;;;;;7.78;61.46;102607.72;684876;28;1472;-83
2022/01/15 01:55:07;;;;;;;43.83;19.30;;;;;;;7.76;61.07;102599.84;679532;29;1919;-83
2022/01/15 01:55:28;;;;;;;46.17;19.27;;;;;;;7.76;61.55;102604.13;684999;28;1342;-83
2022/01/15 01:55:49;;;;;;;45.22;18.85;;;;;;;7.76;61.35;102605.03;681665;29;1338;-83
2022/01/15 01:56:09;;;;;;;46.50;18.27;;;;;;;7.73;61.55;102596.13;682113;29;1417;-83
2022/01/15 01:56:30;;;;;;;45.60;18.50;;;;;;;7.74;61.48;102605.72;676933;29;1272;-84
2022/01/15 01:56:51;;;;;;;47.25;19.35;;;;;;;7.81;61.52;102613.16;682243;28;1433;-83
2022/01/15 01:57:11;;;;;;;44.92;19.20;;;;;;;7.85;61.41;102624.66;681833;29;1258;-84
2022/01/15 01:57:33;;;;;;;45.30;18.85;;;;;;;7.82;61.15;102615.84;680080;29;1374;-84
2022/01/15 01:57:57;;;;;;;45.30;19.02;;;;;;;7.79;61.69;102605.25;682257;29;1351;-84
2022/01/15 01:58:17;;;;;;;44.10;18.90;;;;;;;7.83;61.49;102611.56;680457;29;1366;-83
2022/01/15 01:58:38;;;;;;;44.43;19.43;;;;;;;7.76;61.14;102598.94;681066;29;1256;-84
2022/01/15 01:58:58;;;;;;;44.20;19.90;;;;;;;7.84;61.18;102608.16;683914;28;1174;-84
2022/01/15 01:59:19;;;;;;;44.88;19.63;;;;;;;7.79;61.57;102605.25;681975;29;1273;-84
2022/01/15 01:59:39;;;;;;;47.88;19.55;;;;;;;7.82;61.12;102607.16;680288;28;1267;-84
2022/01/15 02:00:03;;;;;;;46.37;19.00;;;;;;;7.83;61.24;102608.94;676371;29;1402;-83
2022/01/15 02:00:25;;;;;;;47.13;19.13;;;;;;;7.86;61.33;102603.94;681941;28;1424;-83
2022/01/15 02:00:46;;;;;;;42.55;18.67;;;;;;;7.82;61.15;102595.03;685022;28;1417;-84
2022/01/15 02:01:07;;;;;;;45.78;19.00;;;;;;;7.84;61.44;102592.56;673441;29;1203;-84
2022/01/15 02:01:27;;;;;;;44.95;19.27;;;;;;;7.80;61.37;102590.56;679207;29;805;-84
2022/01/15 02:01:53;;;;;;;43.00;18.67;;;;;;;7.82;61.30;102588.97;679778;29;1197;-84
2022/01/15 02:02:13;;;;;;;39.75;18.35;;;;;;;7.78;61.05;102582.66;684339;28;1202;-83
2022/01/15 02:02:35;;;;;;;38.67;18.20;;;;;;;7.83;60.86;102590.75;685315;28;1217;-83
2022/01/15 02:02:56;;;;;;;38.80;17.90;;;;;;;7.89;61.23;102595.47;682306;29;1271;-84
2022/01/15 02:03:17;;;;;;;39.92;17.85;;;;;;;7.85;61.16;102588.28;683530;28;1386;-84
2022/01/15 02:03:38;;;;;;;41.33;18.60;;;;;;;7.84;61.01;102584.75;679466;29;1182;-84
2022/01/15 02:03:58;;;;;;;42.03;18.60;;;;;;;7.85;61.22;102580.47;679782;29;1470;-84